createdAt,value
2023-02-18T00:01:37.856Z,10.90
2023-02-18T00:04:05.805Z,11.00
2023-02-18T00:06:35.691Z,11.00
2023-02-18T00:09:05.322Z,11.00
2023-02-18T00:11:34.628Z,11.00
2023-02-18T00:14:03.410Z,10.90
2023-02-18T00:16:31.546Z,10.90
2023-02-18T00:19:03.850Z,10.90
2023-02-18T00:21:32.342Z,10.90
2023-02-18T00:23:59.418Z,10.80
2023-02-18T00:26:27.241Z,10.90
2023-02-18T00:28:54.495Z,10.80
2023-02-18T00:31:31.485Z,10.80
2023-02-18T00:34:00.616Z,10.70
2023-02-18T00:36:28.975Z,10.70
2023-02-18T00:38:58.708Z,10.70
2023-02-18T00:41:27.878Z,10.70
2023-02-18T00:43:55.528Z,10.60
2023-02-18T00:46:24.469Z,10.70
2023-02-18T00:48:53.825Z,10.70
2023-02-18T00:51:21.509Z,10.80
2023-02-18T00:53:50.105Z,10.90
2023-02-18T00:56:17.634Z,10.80
2023-02-18T00:58:46.842Z,10.90
2023-02-18T01:01:14.536Z,10.80
2023-02-18T01:03:43.523Z,10.80
2023-02-18T01:06:12.245Z,10.80
2023-02-18T01:08:40.396Z,10.80
2023-02-18T01:11:10.122Z,10.90
2023-02-18T01:13:46.148Z,10.90
2023-02-18T01:16:39.564Z,10.90
2023-02-18T01:19:10.787Z,10.90
2023-02-18T01:21:38.920Z,10.90
2023-02-18T01:24:07.176Z,10.90
2023-02-18T01:26:36.802Z,10.90
2023-02-18T01:29:05.928Z,10.90
2023-02-18T01:31:32.891Z,10.90
2023-02-18T01:33:59.970Z,10.90
2023-02-18T01:36:29.464Z,10.90
2023-02-18T01:38:56.980Z,10.90
2023-02-18T01:41:24.072Z,10.90
2023-02-18T01:44:14.917Z,10.80
2023-02-18T01:46:45.423Z,10.70
2023-02-18T01:49:25.405Z,10.70
2023-02-18T01:51:59.239Z,10.60
2023-02-18T01:55:04.526Z,10.70
2023-02-18T01:57:49.436Z,10.80
2023-02-18T02:00:23.144Z,10.70
2023-02-18T02:02:52.518Z,10.70
2023-02-18T02:05:21.778Z,10.70
2023-02-18T02:07:51.862Z,10.60
2023-02-18T02:10:21.046Z,10.70
2023-02-18T02:13:22.126Z,10.70
2023-02-18T02:16:04.749Z,10.70
2023-02-18T02:22:31.477Z,10.60
2023-02-18T02:25:18.207Z,10.60
2023-02-18T02:28:25.372Z,10.60
2023-02-18T02:31:07.434Z,10.60
2023-02-18T02:33:52.861Z,10.60
2023-02-18T02:36:30.203Z,10.60
2023-02-18T02:39:22.366Z,10.70
2023-02-18T02:42:25.833Z,10.70
2023-02-18T02:45:01.848Z,10.70
2023-02-18T02:47:43.272Z,10.70
2023-02-18T02:50:21.921Z,10.70
2023-02-18T02:52:58.034Z,10.60
2023-02-18T02:55:26.117Z,10.60
2023-02-18T02:57:57.354Z,10.60
2023-02-18T03:03:53.624Z,10.70
2023-02-18T03:06:42.131Z,10.60
2023-02-18T03:09:28.105Z,10.60
2023-02-18T03:12:25.819Z,10.60
2023-02-18T03:15:09.734Z,10.60
2023-02-18T03:18:01.740Z,10.50
2023-02-18T03:20:43.201Z,10.60
2023-02-18T03:23:17.646Z,10.60
2023-02-18T03:25:44.744Z,10.60
2023-02-18T03:28:17.969Z,10.60
2023-02-18T03:37:12.275Z,10.50
2023-02-18T03:39:44.330Z,10.40
2023-02-18T03:42:11.588Z,10.40
2023-02-18T03:44:38.551Z,10.40
2023-02-18T03:47:05.627Z,10.40
2023-02-18T03:49:32.540Z,10.40
2023-02-18T03:52:02.024Z,10.40
2023-02-18T03:54:29.267Z,10.40
2023-02-18T03:56:58.442Z,10.40
2023-02-18T03:59:25.339Z,10.40
2023-02-18T04:01:52.301Z,10.50
2023-02-18T04:04:19.607Z,10.40
2023-02-18T04:06:46.517Z,10.40
2023-02-18T04:09:14.463Z,10.30
2023-02-18T04:11:44.556Z,10.40
2023-02-18T04:14:14.288Z,10.30
2023-02-18T04:16:44.528Z,10.20
2023-02-18T04:19:11.809Z,10.30
2023-02-18T04:21:38.685Z,10.20
2023-02-18T04:24:07.859Z,10.30
2023-02-18T04:26:44.139Z,10.20
2023-02-18T04:29:11.256Z,10.20
2023-02-18T04:31:38.227Z,10.20
2023-02-18T04:34:08.487Z,10.20
2023-02-18T04:36:35.515Z,10.20
2023-02-18T04:39:02.626Z,10.20
2023-02-18T04:41:29.501Z,10.20
2023-02-18T04:44:11.699Z,10.20
2023-02-18T04:46:44.545Z,10.20
2023-02-18T04:49:13.491Z,10.20
2023-02-18T04:51:49.690Z,10.20
2023-02-18T04:54:18.655Z,10.10
2023-02-18T04:56:45.530Z,10.10
2023-02-18T04:59:12.546Z,10.10
2023-02-18T05:01:39.433Z,10.10
2023-02-18T05:04:06.617Z,10.20
2023-02-18T05:06:35.684Z,10.30
2023-02-18T05:09:04.607Z,10.30
2023-02-18T05:11:57.276Z,10.30
2023-02-18T05:14:47.611Z,10.30
2023-02-18T05:17:18.657Z,10.30
2023-02-18T05:19:58.335Z,10.30
2023-02-18T05:22:26.549Z,10.20
2023-02-18T05:25:57.131Z,10.20
2023-02-18T05:28:27.133Z,10.20
2023-02-18T05:30:55.388Z,10.10
2023-02-18T05:33:22.730Z,10.20
2023-02-18T05:35:49.950Z,10.20
2023-02-18T05:38:17.249Z,10.30
2023-02-18T05:40:44.712Z,10.20
2023-02-18T05:43:11.620Z,10.30
2023-02-18T05:45:39.645Z,10.40
2023-02-18T05:48:07.754Z,10.30
2023-02-18T05:50:34.924Z,10.20
2023-02-18T05:53:02.991Z,10.20
2023-02-18T05:55:30.029Z,10.30
2023-02-18T05:57:57.080Z,10.30
2023-02-18T06:00:24.003Z,10.40
2023-02-18T06:02:51.053Z,10.40
2023-02-18T06:05:18.135Z,10.50
2023-02-18T06:07:45.001Z,10.50
2023-02-18T06:10:13.383Z,10.50
2023-02-18T06:12:40.477Z,10.50
2023-02-18T06:15:08.533Z,10.50
2023-02-18T06:17:36.838Z,10.50
2023-02-18T06:20:03.980Z,10.50
2023-02-18T06:22:31.039Z,10.40
2023-02-18T06:24:58.224Z,10.50
2023-02-18T06:27:28.397Z,10.50
2023-02-18T06:29:55.348Z,10.50
2023-02-18T06:32:23.583Z,10.60
2023-02-18T06:34:51.727Z,10.50
2023-02-18T06:37:18.698Z,10.70
2023-02-18T06:39:51.499Z,10.70
2023-02-18T06:43:15.263Z,10.70
2023-02-18T06:46:15.122Z,10.80
2023-02-18T06:48:45.094Z,10.60
2023-02-18T06:51:21.501Z,10.50
2023-02-18T06:53:51.673Z,10.50
2023-02-18T06:56:18.628Z,10.50
2023-02-18T06:58:45.705Z,10.50
2023-02-18T07:01:12.907Z,10.60
2023-02-18T07:03:40.710Z,10.50
2023-02-18T07:06:08.055Z,10.50
2023-02-18T07:08:37.545Z,10.50
2023-02-18T07:11:07.274Z,10.40
2023-02-18T07:13:35.485Z,10.40
2023-02-18T07:16:03.639Z,10.50
2023-02-18T07:18:31.716Z,10.50
2023-02-18T07:21:00.007Z,10.40
2023-02-18T07:23:27.987Z,10.50
2023-02-18T07:26:13.693Z,10.50
2023-02-18T07:28:44.382Z,10.50
2023-02-18T07:31:11.772Z,10.60
2023-02-18T07:33:39.775Z,10.70
2023-02-18T07:36:08.764Z,10.60
2023-02-18T07:38:49.137Z,10.60
2023-02-18T07:41:24.788Z,10.60
2023-02-18T07:43:52.889Z,10.40
2023-02-18T07:46:22.776Z,10.40
2023-02-18T07:48:49.777Z,10.40
2023-02-18T07:51:16.994Z,10.60
2023-02-18T07:53:45.043Z,10.60
2023-02-18T07:56:12.269Z,10.60
2023-02-18T07:58:39.925Z,10.60
2023-02-18T08:01:09.776Z,10.60
2023-02-18T08:03:37.905Z,10.50
2023-02-18T08:06:06.123Z,10.60
2023-02-18T08:08:35.951Z,10.50
2023-02-18T08:11:18.582Z,10.50
2023-02-18T08:13:47.523Z,10.50
2023-02-18T08:16:18.424Z,10.60
2023-02-18T08:18:49.727Z,10.60
2023-02-18T08:21:18.652Z,10.70
2023-02-18T08:23:47.047Z,10.70
2023-02-18T08:26:14.614Z,10.70
2023-02-18T08:28:46.339Z,10.70
2023-02-18T08:31:23.526Z,10.70
2023-02-18T08:33:51.047Z,10.60
2023-02-18T08:36:18.532Z,10.60
2023-02-18T08:38:45.530Z,10.70
2023-02-18T08:41:14.699Z,10.60
2023-02-18T08:43:42.864Z,10.70
2023-02-18T08:46:15.096Z,10.80
2023-02-18T08:48:45.166Z,10.80
2023-02-18T08:51:22.042Z,10.70
2023-02-18T08:53:50.301Z,10.80
2023-02-18T08:56:17.775Z,10.60
2023-02-18T08:58:44.883Z,10.60
2023-02-18T09:01:13.338Z,10.70
2023-02-18T09:03:41.202Z,10.60
2023-02-18T09:06:10.111Z,10.60
2023-02-18T09:08:37.300Z,10.50
2023-02-18T09:11:05.255Z,10.50
2023-02-18T09:13:33.257Z,10.60
2023-02-18T09:16:07.231Z,10.70
2023-02-18T09:18:38.195Z,10.70
2023-02-18T09:21:08.102Z,10.60
2023-02-18T09:23:35.957Z,10.70
2023-02-18T09:26:08.251Z,10.80
2023-02-18T09:28:37.206Z,10.80
2023-02-18T09:31:06.697Z,10.80
2023-02-18T09:33:43.682Z,10.70
2023-02-18T09:36:12.136Z,10.80
2023-02-18T09:38:41.625Z,10.80
2023-02-18T09:41:37.622Z,10.80
2023-02-18T09:44:18.359Z,10.80
2023-02-18T09:47:00.275Z,10.90
2023-02-18T09:49:33.574Z,10.90
2023-02-18T09:52:23.944Z,10.90
2023-02-18T09:54:52.404Z,10.90
2023-02-18T09:57:46.194Z,10.90
2023-02-18T10:00:25.005Z,10.80
2023-02-18T10:03:06.333Z,10.90
2023-02-18T10:05:37.216Z,10.90
2023-02-18T10:08:19.802Z,10.90
2023-02-18T10:10:49.652Z,11.00
2023-02-18T10:13:21.810Z,11.00
2023-02-18T10:15:51.748Z,10.90
2023-02-18T10:21:20.561Z,11.00
2023-02-18T10:24:01.506Z,11.00
2023-02-18T10:26:31.974Z,11.10
2023-02-18T10:29:00.248Z,11.20
2023-02-18T10:31:41.036Z,11.20
2023-02-18T10:34:46.461Z,11.20
2023-02-18T10:37:31.635Z,11.10
2023-02-18T10:41:02.273Z,11.10
2023-02-18T10:44:06.777Z,11.20
2023-02-18T10:47:19.800Z,11.20
2023-02-18T10:50:10.379Z,11.20
2023-02-18T10:52:46.491Z,11.20
2023-02-18T10:55:18.645Z,11.30
2023-02-18T10:57:52.930Z,11.40
2023-02-18T11:00:27.228Z,11.40
2023-02-18T11:03:24.512Z,11.40
2023-02-18T11:05:55.455Z,11.40
2023-02-18T11:08:30.564Z,11.40
2023-02-18T11:10:58.557Z,11.40
2023-02-18T11:13:29.285Z,11.40
2023-02-18T11:16:05.011Z,11.50
2023-02-18T11:18:42.146Z,11.60
2023-02-18T11:21:35.146Z,11.60
2023-02-18T11:24:21.440Z,11.60
2023-02-18T11:26:49.404Z,11.70
2023-02-18T11:30:15.275Z,11.80
2023-02-18T11:33:33.696Z,11.80
2023-02-18T11:36:22.136Z,11.90
2023-02-18T11:39:15.221Z,12.00
2023-02-18T11:42:08.359Z,11.90
2023-02-18T11:45:00.504Z,12.00
2023-02-18T11:48:01.262Z,12.00
2023-02-18T11:50:36.180Z,12.10
2023-02-18T11:53:30.387Z,12.00
2023-02-18T11:56:03.721Z,12.20
2023-02-18T11:58:45.922Z,12.10
2023-02-18T12:01:30.853Z,12.20
2023-02-18T12:04:09.175Z,12.10
2023-02-18T12:07:23.635Z,12.10
2023-02-18T12:09:59.233Z,12.00
2023-02-18T12:12:41.675Z,12.00
2023-02-18T12:15:14.045Z,12.00
2023-02-18T12:18:00.367Z,11.90
2023-02-18T12:20:39.164Z,12.10
2023-02-18T12:23:13.153Z,12.00
2023-02-18T12:26:01.648Z,12.10
2023-02-18T12:28:31.809Z,12.20
2023-02-18T12:31:04.824Z,12.10
2023-02-18T12:33:46.595Z,12.00
2023-02-18T12:36:52.359Z,11.90
2023-02-18T12:40:00.498Z,12.00
2023-02-18T12:42:51.827Z,12.20
2023-02-18T12:48:59.252Z,12.30
2023-02-18T12:51:36.284Z,12.30
2023-02-18T12:54:15.109Z,12.30
2023-02-18T12:57:05.512Z,12.40
2023-02-18T12:59:44.327Z,12.30
2023-02-18T13:02:40.012Z,12.40
2023-02-18T13:05:25.351Z,12.40
2023-02-18T13:08:12.460Z,12.40
2023-02-18T13:10:40.521Z,12.40
2023-02-18T13:13:21.287Z,12.10
2023-02-18T13:16:06.271Z,12.10
2023-02-18T13:18:54.685Z,12.10
2023-02-18T13:21:23.078Z,12.00
2023-02-18T13:23:56.736Z,11.90
2023-02-18T13:26:24.797Z,11.80
2023-02-18T13:29:00.766Z,11.90
2023-02-18T13:31:56.974Z,11.80
2023-02-18T13:34:48.564Z,11.70
2023-02-18T13:37:21.051Z,11.70
2023-02-18T13:39:56.552Z,11.60
2023-02-18T13:42:32.972Z,11.60
2023-02-18T13:44:59.832Z,11.70
2023-02-18T13:47:38.853Z,11.70
2023-02-18T13:50:26.997Z,11.60
2023-02-18T13:53:09.534Z,11.60
2023-02-18T13:56:04.481Z,11.60
2023-02-18T13:58:48.548Z,11.60
2023-02-18T14:01:36.793Z,11.50
2023-02-18T14:04:41.879Z,11.50
2023-02-18T14:07:27.236Z,11.50
2023-02-18T14:10:21.762Z,11.50
2023-02-18T14:12:58.174Z,11.70
2023-02-18T14:15:25.236Z,11.70
2023-02-18T14:18:19.214Z,11.60
2023-02-18T14:20:52.143Z,11.40
2023-02-18T14:23:21.384Z,11.30
2023-02-18T14:25:57.555Z,11.30
2023-02-18T14:28:49.369Z,11.40
2023-02-18T14:31:29.783Z,11.40
2023-02-18T14:34:25.619Z,11.50
2023-02-18T14:37:31.385Z,11.50
2023-02-18T14:40:19.712Z,11.30
2023-02-18T14:43:07.448Z,11.40
2023-02-18T14:45:52.538Z,11.40
2023-02-18T14:48:56.395Z,11.40
2023-02-18T14:51:27.081Z,11.60
2023-02-18T14:53:54.402Z,11.60
2023-02-18T14:56:23.409Z,11.60
2023-02-18T14:59:05.499Z,11.60
2023-02-18T15:01:35.598Z,11.50
2023-02-18T15:04:14.032Z,11.50
2023-02-18T15:06:42.860Z,11.70
2023-02-18T15:09:22.816Z,11.80
2023-02-18T15:12:00.966Z,11.90
2023-02-18T15:14:34.811Z,11.90
2023-02-18T15:17:04.587Z,11.90
2023-02-18T15:19:44.659Z,11.80
2023-02-18T15:22:21.060Z,11.60
2023-02-18T15:24:49.806Z,11.50
2023-02-18T15:27:29.401Z,11.40
2023-02-18T15:30:24.729Z,11.50
2023-02-18T15:33:01.789Z,11.50
2023-02-18T15:35:31.639Z,11.30
2023-02-18T15:38:00.954Z,11.20
2023-02-18T15:40:31.594Z,11.30
2023-02-18T15:43:01.699Z,11.40
2023-02-18T15:45:42.939Z,11.40
2023-02-18T15:48:33.248Z,11.30
2023-02-18T15:51:16.472Z,11.40
2023-02-18T15:53:50.403Z,11.50
2023-02-18T15:56:35.573Z,11.40
2023-02-18T15:59:27.893Z,11.50
2023-02-18T16:01:58.044Z,11.40
2023-02-18T16:04:30.387Z,11.60
2023-02-18T16:06:57.645Z,11.50
2023-02-18T16:09:29.621Z,11.70
2023-02-18T16:12:02.517Z,11.70
2023-02-18T16:14:48.436Z,11.80
2023-02-18T16:17:21.158Z,11.80
2023-02-18T16:20:30.203Z,11.80
2023-02-18T16:23:02.493Z,11.80
2023-02-18T16:25:44.290Z,11.90
2023-02-18T16:28:38.133Z,11.80
2023-02-18T16:31:06.766Z,11.70
2023-02-18T16:33:33.814Z,11.60
2023-02-18T16:36:00.932Z,11.80
2023-02-18T16:38:30.650Z,11.60
2023-02-18T16:41:04.979Z,11.60
2023-02-18T16:46:28.047Z,11.60
2023-02-18T16:48:56.560Z,11.50
2023-02-18T16:51:26.061Z,11.60
2023-02-18T16:53:54.471Z,11.60
2023-02-18T16:56:25.489Z,11.60
2023-02-18T16:58:54.290Z,11.60
2023-02-18T17:01:33.385Z,11.60
2023-02-18T17:04:02.454Z,11.50
2023-02-18T17:06:30.474Z,11.40
2023-02-18T17:08:57.940Z,11.20
2023-02-18T17:11:33.551Z,11.20
2023-02-18T17:14:05.324Z,11.30
2023-02-18T17:16:34.159Z,11.30
2023-02-18T17:19:02.788Z,11.30
2023-02-18T17:21:30.041Z,11.40
2023-02-18T17:23:57.391Z,11.30
2023-02-18T17:26:32.486Z,11.30
2023-02-18T17:29:01.029Z,11.30
2023-02-18T17:31:36.478Z,11.40
2023-02-18T17:34:09.643Z,11.40
2023-02-18T17:37:03.450Z,11.30
2023-02-18T17:39:31.676Z,11.20
2023-02-18T17:41:58.719Z,11.20
2023-02-18T17:44:29.254Z,11.20
2023-02-18T17:47:00.594Z,11.20
2023-02-18T17:49:45.491Z,11.00
2023-02-18T17:52:29.877Z,11.00
2023-02-18T17:55:06.389Z,11.20
2023-02-18T17:57:36.860Z,11.20
2023-02-18T18:00:57.557Z,11.10
2023-02-18T18:03:36.203Z,11.10
2023-02-18T18:06:21.776Z,11.10
2023-02-18T18:12:51.440Z,11.00
2023-02-18T18:15:41.648Z,11.00
2023-02-18T18:18:41.120Z,10.90
2023-02-18T18:21:35.823Z,10.80
2023-02-18T18:24:12.892Z,10.70
2023-02-18T18:26:43.406Z,10.70
2023-02-18T18:29:16.500Z,10.70
2023-02-18T18:31:44.266Z,10.70
2023-02-18T18:35:22.953Z,10.70
2023-02-18T18:38:48.313Z,10.80
2023-02-18T18:41:23.030Z,10.80
2023-02-18T18:43:52.027Z,10.90
2023-02-18T18:49:10.806Z,10.90
2023-02-18T18:52:00.421Z,10.90
2023-02-18T18:54:27.850Z,10.90
2023-02-18T18:57:01.747Z,11.00
2023-02-18T19:02:33.305Z,10.90
2023-02-18T19:05:39.910Z,10.80
2023-02-18T19:08:14.997Z,10.80
2023-02-18T19:15:27.718Z,10.80
2023-02-18T19:22:16.544Z,10.80
2023-02-18T19:28:37.592Z,10.80
2023-02-18T19:31:11.687Z,10.80
2023-02-18T19:33:51.566Z,10.80
2023-02-18T19:36:29.245Z,10.80
2023-02-18T19:39:00.108Z,10.80
2023-02-18T19:41:36.227Z,10.70
2023-02-18T19:44:04.280Z,10.70
2023-02-18T19:52:21.209Z,10.60
2023-02-18T19:54:52.667Z,10.70
2023-02-18T20:00:28.741Z,10.60
2023-02-18T20:03:34.288Z,10.60
2023-02-18T20:14:19.483Z,10.60
2023-02-18T20:16:53.321Z,10.70
2023-02-18T20:19:20.837Z,10.70
2023-02-18T20:21:49.157Z,10.80
2023-02-18T20:36:38.821Z,10.90
2023-02-18T20:42:16.853Z,10.90
2023-02-18T20:48:46.730Z,10.90
2023-02-18T20:51:19.496Z,10.90
2023-02-18T20:53:54.267Z,10.90
2023-02-18T20:56:25.610Z,10.70
2023-02-18T20:58:54.053Z,10.80
2023-02-18T21:01:25.648Z,10.80
2023-02-18T21:03:57.104Z,10.80
2023-02-18T21:06:26.310Z,10.80
2023-02-18T21:08:56.334Z,10.90
2023-02-18T21:11:28.212Z,10.90
2023-02-18T21:13:57.432Z,11.00
2023-02-18T21:16:26.980Z,11.00
2023-02-18T21:18:55.759Z,10.90
2023-02-18T21:21:24.282Z,11.00
2023-02-18T21:23:52.457Z,10.90
2023-02-18T21:26:26.265Z,10.90
2023-02-18T21:29:08.740Z,11.00
2023-02-18T21:31:44.675Z,11.00
2023-02-18T21:34:16.585Z,11.10
2023-02-18T21:36:45.066Z,11.10
2023-02-18T21:39:13.185Z,11.30
2023-02-18T21:41:44.572Z,11.40
2023-02-18T21:44:14.241Z,11.30
2023-02-18T21:46:44.401Z,11.30
2023-02-18T21:49:21.827Z,11.20
2023-02-18T21:52:01.961Z,11.20
2023-02-18T21:54:38.977Z,11.20
2023-02-18T21:57:16.846Z,11.10
2023-02-18T21:59:48.728Z,11.10
2023-02-18T22:02:21.690Z,11.00
2023-02-18T22:04:55.519Z,10.90
2023-02-18T22:07:35.514Z,11.10
2023-02-18T22:11:11.077Z,11.30
2023-02-18T22:19:23.484Z,11.20
2023-02-18T22:21:57.372Z,11.30
2023-02-18T22:24:29.022Z,11.30
2023-02-18T22:31:11.592Z,11.30
2023-02-18T22:36:35.452Z,11.30
2023-02-18T22:39:29.324Z,11.30
2023-02-18T22:41:58.519Z,11.30
2023-02-18T22:47:11.320Z,11.10
2023-02-18T22:49:43.488Z,11.10
2023-02-18T22:55:11.495Z,11.10
2023-02-18T22:57:45.840Z,11.20
2023-02-18T23:00:15.100Z,11.30
2023-02-18T23:05:38.737Z,11.20
2023-02-18T23:08:07.994Z,11.20
2023-02-18T23:10:39.856Z,11.30
2023-02-18T23:13:08.044Z,11.30
2023-02-18T23:15:37.818Z,11.30
2023-02-18T23:18:08.874Z,11.40
2023-02-18T23:20:55.872Z,11.20
2023-02-18T23:23:29.804Z,11.20
2023-02-18T23:28:58.005Z,11.40
2023-02-18T23:31:29.053Z,11.20
2023-02-18T23:34:04.143Z,11.20
2023-02-18T23:36:34.367Z,11.10
2023-02-18T23:39:07.870Z,10.90
2023-02-18T23:41:40.296Z,11.00
2023-02-18T23:44:13.187Z,11.10
2023-02-18T23:46:45.082Z,11.20
2023-02-18T23:49:19.675Z,11.20
2023-02-18T23:51:47.508Z,11.20
2023-02-18T23:54:14.933Z,11.30
2023-02-18T23:56:44.029Z,11.20
2023-02-18T23:59:17.224Z,11.20
